Bookmark and Share
Track history (hours):
 

Fantasia

Last reported at 2014-Apr-14 19:34 UTC. Time now 2014-Apr-24 13:38 UTC.
Position N 29°25' W 094°50'.
Warning: this ship's position is 9 days out of date.

Length 183 m; draft 11.1 m.

Type: Tanker. MMSI: 247279600.

NotesDate/timePositionNaut miles runAvg speedWind from/ knotsBaromVisibWave heightAir tempDewpointWater temp
2014-Apr-14 19:34N 29°25' W 094°50'1111.2
2014-Apr-14 18:33N 29°35' W 094°56'10 9.6
2014-Apr-14 17:33N 29°44' W 095°01'5 5.2
2014-Apr-14 16:34N 29°44' W 095°07'4 0.1
2014-Apr-12 14:04N 29°45' W 095°12'2 2.5
2014-Apr-12 13:13N 29°45' W 095°10'3 5.3
2014-Apr-12 12:33N 29°45' W 095°06'5 4.5
2014-Apr-12 11:33N 29°43' W 095°01'8 8.4
2014-Apr-12 10:33N 29°35' W 094°56'1010.3
2014-Apr-12 09:33N 29°27' W 094°50'9 0.8
2014-Apr-11 23:21N 29°21' W 094°43'  
2014-Apr-08 02:33N 24°25' W 081°05'1110.7
2014-Apr-08 01:33N 24°28' W 080°54'1110.5
2014-Apr-08 00:28N 24°32' W 080°42'1011.1
2014-Apr-07 23:33N 24°38' W 080°33'1110.7
2014-Apr-07 22:33N 24°44' W 080°24'1311.0
2014-Apr-07 21:20N 24°52' W 080°12'911.4
2014-Apr-07 20:33N 24°58' W 080°04'1010.2
2014-Apr-07 19:33N 25°06' W 079°57'2110.6
2014-Apr-07 17:33N 25°26' W 079°50'10 9.6
2014-Apr-07 16:33N 25°35' W 079°47'1010.0
2014-Apr-07 15:33N 25°45' W 079°45'1010.1
2014-Apr-07 14:33N 25°55' W 079°45'10 9.7
2014-Apr-07 13:33N 26°05' W 079°45'10 9.5
2014-Apr-07 12:33N 26°14' W 079°44'10 9.7
2014-Apr-07 11:33N 26°24' W 079°43'10 9.8
2014-Apr-07 10:33N 26°34' W 079°42'1010.1
2014-Apr-07 09:34N 26°44' W 079°41'10 9.8
2014-Apr-07 08:32N 26°54' W 079°40'4210.0
2014-Apr-07 04:17N 27°36' W 079°31'1011.5
2014-Apr-07 03:24N 27°44' W 079°26'  

Dump ship's entire track history

sailing weather and tide predictions

Fantasia — ICJY — position and weather